Time;durP1;ratioP1;P1;durP2;ratioP2;P2;SDS_P1;SDS_P2;PMS_P1;PMS_P2;Temp;Humidity;BMP_temperature;BMP_pressure;BME280_temperature;BME280_humidity;BME280_pressure;Samples;Min_cycle;Max_cycle;Signal;HPM_P1;HPM_P2
2023/11/06 00:00:11;;;;;;;0.22;0.22;;;;;;;7.77;100.00;94504.13;1030550;28;20030;-72
2023/11/06 00:00:42;;;;;;;0.17;0.17;;;;;;;7.71;100.00;94494.78;1030634;28;20338;-74
2023/11/06 00:01:13;;;;;;;0.00;0.00;;;;;;;7.71;100.00;94505.25;1027146;28;20627;-74
2023/11/06 00:01:44;;;;;;;0.00;0.00;;;;;;;7.68;100.00;94510.22;1034562;28;20038;-74
2023/11/06 00:02:14;;;;;;;0.10;0.10;;;;;;;7.63;100.00;94507.66;1030881;28;20030;-72
2023/11/06 00:02:45;;;;;;;0.00;0.00;;;;;;;7.55;100.00;94495.97;1030931;28;20285;-72
2023/11/06 00:03:15;;;;;;;0.00;0.00;;;;;;;7.59;100.00;94517.88;1026484;28;20041;-75
2023/11/06 00:03:46;;;;;;;0.00;0.00;;;;;;;7.54;100.00;94502.22;1026943;28;20039;-72
2023/11/06 00:04:16;;;;;;;0.00;0.00;;;;;;;7.64;100.00;94509.19;1034805;28;20093;-76
2023/11/06 00:04:47;;;;;;;0.35;0.35;;;;;;;7.64;100.00;94509.97;1034849;28;20115;-74
2023/11/06 00:05:17;;;;;;;0.00;0.00;;;;;;;7.59;100.00;94507.41;1034906;28;20248;-73
2023/11/06 00:05:48;;;;;;;0.00;0.00;;;;;;;7.59;100.00;94509.25;1030801;28;20106;-74
2023/11/06 00:06:19;;;;;;;0.00;0.00;;;;;;;7.61;100.00;94510.53;1031022;28;20135;-73
2023/11/06 00:06:49;;;;;;;3.53;0.52;;;;;;;7.55;100.00;94501.19;1030407;28;20030;-75
2023/11/06 00:07:20;;;;;;;0.00;0.00;;;;;;;7.51;100.00;94494.94;1022704;29;20039;-73
2023/11/06 00:07:50;;;;;;;0.00;0.00;;;;;;;7.54;100.00;94504.84;1022638;29;20031;-73
2023/11/06 00:08:20;;;;;;;0.00;0.00;;;;;;;7.46;100.00;94506.22;1022977;28;20640;-73
2023/11/06 00:08:51;;;;;;;0.00;0.00;;;;;;;7.44;100.00;94515.34;1026882;28;20035;-75
2023/11/06 00:09:22;;;;;;;0.00;0.00;;;;;;;7.49;100.00;94517.94;1026865;28;20027;-77
2023/11/06 00:09:52;;;;;;;0.00;0.00;;;;;;;7.50;100.00;94509.81;1026535;28;20027;-73
2023/11/06 00:10:22;;;;;;;0.00;0.00;;;;;;;7.51;100.00;94526.25;1026257;28;20027;-73
2023/11/06 00:10:53;;;;;;;0.00;0.00;;;;;;;7.47;100.00;94520.81;1026889;28;20027;-75
2023/11/06 00:11:23;;;;;;;0.00;0.00;;;;;;;7.46;100.00;94513.25;1026840;28;20422;-75
2023/11/06 00:11:54;;;;;;;0.00;0.00;;;;;;;7.45;100.00;94516.94;1019867;29;20031;-72
2023/11/06 00:12:26;;;;;;;0.13;0.13;;;;;;;7.51;100.00;94532.28;1020993;29;20029;-74
2023/11/06 00:12:56;;;;;;;0.00;0.00;;;;;;;7.51;100.00;94516.63;1023222;28;20118;-74
2023/11/06 00:13:27;;;;;;;0.00;0.00;;;;;;;7.45;100.00;94507.28;1028389;28;20278;-75
2023/11/06 00:13:58;;;;;;;1.20;0.35;;;;;;;7.56;100.00;94526.25;1026916;28;20127;-74
2023/11/06 00:14:29;;;;;;;0.00;0.00;;;;;;;7.53;100.00;94518.94;1030749;28;20042;-74
2023/11/06 00:14:59;;;;;;;0.88;0.60;;;;;;;7.51;100.00;94515.81;1026441;28;20794;-75
2023/11/06 00:15:30;;;;;;;0.00;0.00;;;;;;;7.43;100.00;94513.81;1027015;28;20306;-75
2023/11/06 00:16:00;;;;;;;0.25;0.25;;;;;;;7.49;100.00;94518.72;1022654;29;20035;-76
2023/11/06 00:16:30;;;;;;;0.00;0.00;;;;;;;7.48;100.00;94526.84;1022783;28;20031;-76
2023/11/06 00:17:01;;;;;;;0.00;0.00;;;;;;;7.26;100.00;94501.91;1026648;28;20031;-73
2023/11/06 00:17:31;;;;;;;0.85;0.52;;;;;;;7.42;100.00;94523.47;1022674;28;20031;-75
2023/11/06 00:18:02;;;;;;;0.00;0.00;;;;;;;7.41;100.00;94521.13;1026580;28;20098;-74
2023/11/06 00:18:32;;;;;;;0.00;0.00;;;;;;;7.36;100.00;94515.94;1029758;28;20595;-76
2023/11/06 00:19:03;;;;;;;0.00;0.00;;;;;;;7.37;100.00;94518.28;1030656;28;20026;-75
2023/11/06 00:19:34;;;;;;;0.55;0.35;;;;;;;7.36;100.00;94518.56;1030744;28;20073;-72
2023/11/06 00:20:10;;;;;;;0.00;0.00;;;;;;;7.35;100.00;94522.22;1030464;28;20034;-73
2023/11/06 00:20:40;;;;;;;0.00;0.00;;;;;;;7.38;100.00;94522.47;1031163;28;21076;-74
2023/11/06 00:21:11;;;;;;;0.00;0.00;;;;;;;7.42;100.00;94527.91;1032497;28;20320;-74
2023/11/06 00:21:41;;;;;;;0.00;0.00;;;;;;;7.38;100.00;94513.84;1039623;28;20080;-74
2023/11/06 00:22:13;;;;;;;0.00;0.00;;;;;;;7.44;100.00;94523.19;1034389;28;20370;-73
2023/11/06 00:22:43;;;;;;;0.00;0.00;;;;;;;7.39;100.00;94524.00;1030774;28;20036;-75
2023/11/06 00:23:14;;;;;;;0.00;0.00;;;;;;;7.41;100.00;94531.56;1030699;28;20272;-75
2023/11/06 00:23:45;;;;;;;0.00;0.00;;;;;;;7.43;100.00;94524.25;1026713;28;20436;-74
2023/11/06 00:24:15;;;;;;;0.00;0.00;;;;;;;7.43;100.00;94524.25;1026954;28;20703;-75
2023/11/06 00:24:46;;;;;;;0.00;0.00;;;;;;;7.42;100.00;94525.31;1030921;28;20446;-75
2023/11/06 00:25:16;;;;;;;0.10;0.10;;;;;;;7.41;100.00;94531.56;1034813;28;20026;-74
2023/11/06 00:25:47;;;;;;;0.20;0.20;;;;;;;7.38;100.00;94526.88;1038759;28;20021;-74
2023/11/06 00:26:18;;;;;;;0.00;0.00;;;;;;;7.38;100.00;94534.72;1030515;28;20034;-73
2023/11/06 00:26:48;;;;;;;0.00;0.00;;;;;;;7.38;100.00;94529.50;1034846;28;20034;-76
2023/11/06 00:27:18;;;;;;;0.00;0.00;;;;;;;7.38;100.00;94539.94;1034458;28;20575;-74
2023/11/06 00:27:49;;;;;;;0.00;0.00;;;;;;;7.48;100.00;94538.06;1026639;28;20037;-71
2023/11/06 00:28:19;;;;;;;1.08;0.52;;;;;;;7.49;100.00;94544.81;1034681;28;20026;-73
2023/11/06 00:28:50;;;;;;;0.90;0.30;;;;;;;7.48;100.00;94543.28;1032250;28;20465;-75
2023/11/06 00:29:22;;;;;;;0.00;0.00;;;;;;;7.42;100.00;94539.13;1034660;28;20022;-75
2023/11/06 00:29:52;;;;;;;0.00;0.00;;;;;;;7.45;100.00;94549.03;1026528;28;20026;-74
2023/11/06 00:30:22;;;;;;;0.00;0.00;;;;;;;7.44;100.00;94541.47;1027337;28;20270;-74
2023/11/06 00:30:53;;;;;;;0.00;0.00;;;;;;;7.40;100.00;94537.84;1034655;28;20018;-73
2023/11/06 00:31:24;;;;;;;0.10;0.00;;;;;;;7.41;100.00;94536.78;1026919;28;20019;-73
2023/11/06 00:31:54;;;;;;;0.00;0.00;;;;;;;7.41;100.00;94544.59;1034640;28;20088;-74
2023/11/06 00:32:25;;;;;;;0.00;0.00;;;;;;;7.31;100.00;94537.66;1034501;28;20037;-73
2023/11/06 00:32:57;;;;;;;0.00;0.00;;;;;;;7.38;100.00;94547.75;1034638;28;20026;-75
2023/11/06 00:33:27;;;;;;;0.00;0.00;;;;;;;7.36;100.00;94553.25;1030971;28;20026;-75
2023/11/06 00:33:57;;;;;;;0.00;0.00;;;;;;;7.32;100.00;94545.19;1026511;28;20746;-74
2023/11/06 00:34:28;;;;;;;0.00;0.00;;;;;;;7.36;100.00;94555.09;1022803;28;20586;-75
2023/11/06 00:34:58;;;;;;;0.17;0.08;;;;;;;7.41;100.00;94557.66;1026889;28;20027;-73
2023/11/06 00:35:29;;;;;;;0.00;0.00;;;;;;;7.42;100.00;94541.75;1034559;28;20072;-74
2023/11/06 00:35:59;;;;;;;0.00;0.00;;;;;;;7.50;100.00;94556.03;1030683;28;20023;-71
2023/11/06 00:36:30;;;;;;;0.00;0.00;;;;;;;7.51;100.00;94547.16;1030532;28;20466;-74
2023/11/06 00:37:00;;;;;;;0.20;0.20;;;;;;;7.48;100.00;94545.09;1034682;28;20316;-75
2023/11/06 00:37:31;;;;;;;0.00;0.00;;;;;;;7.50;100.00;94562.03;1034315;28;20324;-72
2023/11/06 00:38:02;;;;;;;0.30;0.30;;;;;;;7.54;100.00;94557.03;1034741;28;20057;-73
2023/11/06 00:38:35;;;;;;;0.00;0.00;;;;;;;7.53;100.00;94564.09;1034602;28;20272;-73
2023/11/06 00:39:07;;;;;;;0.00;0.00;;;;;;;7.47;100.00;94551.34;1034723;28;20318;-74
2023/11/06 00:39:37;;;;;;;0.00;0.00;;;;;;;7.61;100.00;94564.56;1035307;28;20307;-73
2023/11/06 00:40:08;;;;;;;0.00;0.00;;;;;;;7.53;100.00;94551.03;1035144;28;20265;-71
2023/11/06 00:40:39;;;;;;;0.00;0.00;;;;;;;7.56;100.00;94560.16;1034018;28;20564;-74
2023/11/06 00:41:09;;;;;;;0.00;0.00;;;;;;;7.52;100.00;94556.56;1026871;28;20348;-75
2023/11/06 00:41:40;;;;;;;0.00;0.00;;;;;;;7.58;100.00;94573.75;1026896;28;20031;-72
2023/11/06 00:42:11;;;;;;;0.00;0.00;;;;;;;7.53;100.00;94555.50;1026673;28;20030;-72
2023/11/06 00:42:41;;;;;;;0.00;0.00;;;;;;;7.57;100.00;94567.72;1026888;28;20286;-75
2023/11/06 00:43:12;;;;;;;0.00;0.00;;;;;;;7.56;100.00;94571.38;1026698;28;20522;-76
2023/11/06 00:43:43;;;;;;;0.00;0.00;;;;;;;7.57;100.00;94574.78;1030661;28;20053;-75
2023/11/06 00:44:13;;;;;;;0.00;0.00;;;;;;;7.58;100.00;94563.31;1022741;28;20078;-73
2023/11/06 00:44:44;;;;;;;0.00;0.00;;;;;;;7.60;100.00;94571.63;1029588;28;20023;-73
2023/11/06 00:45:14;;;;;;;0.30;0.20;;;;;;;7.58;100.00;94573.75;1026400;28;20038;-72
2023/11/06 00:45:45;;;;;;;0.10;0.10;;;;;;;7.57;100.00;94566.94;1025060;28;20031;-74
2023/11/06 00:46:15;;;;;;;0.00;0.00;;;;;;;7.52;100.00;94573.00;1030646;28;20022;-74
2023/11/06 00:46:45;;;;;;;0.70;0.10;;;;;;;7.55;100.00;94571.69;1022592;28;20031;-73
2023/11/06 00:47:16;;;;;;;0.30;0.30;;;;;;;7.53;100.00;94578.97;1026405;28;20034;-73
2023/11/06 00:47:46;;;;;;;0.00;0.00;;;;;;;7.57;100.00;94580.78;1034646;28;20124;-73
2023/11/06 00:48:17;;;;;;;0.30;0.30;;;;;;;7.58;100.00;94576.34;1030795;28;20088;-75
2023/11/06 00:48:47;;;;;;;0.52;0.52;;;;;;;7.58;100.00;94584.19;1034764;28;20026;-74
2023/11/06 00:49:18;;;;;;;0.00;0.00;;;;;;;7.55;100.00;94569.84;1031563;28;20030;-75
2023/11/06 00:49:48;;;;;;;0.00;0.00;;;;;;;7.60;100.00;94587.28;1026666;28;20098;-73
2023/11/06 00:50:19;;;;;;;0.00;0.00;;;;;;;7.41;100.00;94555.03;1026841;28;20121;-73
2023/11/06 00:50:49;;;;;;;0.00;0.00;;;;;;;7.57;100.00;94596.44;1027892;28;20073;-75
2023/11/06 00:51:20;;;;;;;0.65;0.30;;;;;;;7.54;100.00;94572.69;1030747;28;20022;-73
2023/11/06 00:51:50;;;;;;;0.00;0.00;;;;;;;7.64;100.00;94593.50;1030754;28;20027;-74
2023/11/06 00:52:21;;;;;;;0.00;0.00;;;;;;;7.63;100.00;94585.97;1026848;28;20034;-74
2023/11/06 00:52:51;;;;;;;0.10;0.10;;;;;;;7.59;100.00;94574.50;1026161;28;20031;-77
2023/11/06 00:53:22;;;;;;;0.00;0.00;;;;;;;7.63;100.00;94586.75;1027298;28;20042;-76
2023/11/06 00:53:52;;;;;;;0.00;0.00;;;;;;;7.54;100.00;94585.75;1035006;28;20437;-75
2023/11/06 00:54:23;;;;;;;0.00;0.00;;;;;;;7.58;100.00;94578.97;1034475;28;20029;-72
2023/11/06 00:54:54;;;;;;;0.00;0.00;;;;;;;7.52;100.00;94591.25;1034710;28;20056;-72
2023/11/06 00:55:26;;;;;;;1.13;1.08;;;;;;;7.37;100.00;94583.50;1026329;28;20027;-71
2023/11/06 00:55:56;;;;;;;0.00;0.00;;;;;;;7.55;100.00;94587.34;1026614;28;20037;-74
2023/11/06 00:56:28;;;;;;;0.00;0.00;;;;;;;7.50;100.00;94582.13;1027190;28;20653;-75
2023/11/06 00:57:00;;;;;;;0.00;0.00;;;;;;;7.52;100.00;94590.47;1035500;28;20036;-74
2023/11/06 00:57:30;;;;;;;0.00;0.00;;;;;;;7.51;100.00;94586.28;1042661;28;20267;-75
2023/11/06 00:58:01;;;;;;;0.00;0.00;;;;;;;7.42;100.00;94582.72;1042132;28;20701;-73
2023/11/06 00:58:31;;;;;;;1.20;0.30;;;;;;;7.47;100.00;94593.88;1030326;28;20031;-73
2023/11/06 00:59:02;;;;;;;0.10;0.10;;;;;;;7.45;100.00;94590.78;1030527;28;20330;-74
2023/11/06 00:59:33;;;;;;;0.32;0.32;;;;;;;7.47;100.00;94603.56;1030481;28;20506;-75
2023/11/06 01:00:04;;;;;;;0.00;0.00;;;;;;;7.51;100.00;94589.72;1033118;28;20026;-72
2023/11/06 01:00:35;;;;;;;0.00;0.00;;;;;;;7.50;100.00;94600.41;1034287;28;20636;-73
2023/11/06 01:01:05;;;;;;;0.13;0.13;;;;;;;7.50;100.00;94587.34;1030371;28;20305;-75
2023/11/06 01:01:36;;;;;;;0.05;0.05;;;;;;;7.40;100.00;94584.81;1032840;28;20030;-75
2023/11/06 01:02:07;;;;;;;0.00;0.00;;;;;;;7.43;100.00;94586.88;1030557;28;20027;-75
2023/11/06 01:02:37;;;;;;;0.00;0.00;;;;;;;7.44;100.00;94585.81;1034733;28;20025;-73
2023/11/06 01:03:08;;;;;;;0.00;0.00;;;;;;;7.39;100.00;94586.66;1038294;28;20520;-71
2023/11/06 01:03:38;;;;;;;0.22;0.22;;;;;;;7.41;100.00;94586.34;1038469;28;20068;-72
2023/11/06 01:04:09;;;;;;;1.38;0.90;;;;;;;7.28;100.00;94561.66;1038502;28;20028;-73
2023/11/06 01:04:40;;;;;;;0.00;0.00;;;;;;;7.42;100.00;94590.56;1030472;28;20041;-75
2023/11/06 01:05:10;;;;;;;0.63;0.63;;;;;;;7.29;100.00;94573.66;1030579;28;20603;-78
2023/11/06 01:05:42;;;;;;;0.45;0.35;;;;;;;7.52;100.00;94587.88;1034360;28;20038;-73
2023/11/06 01:06:12;;;;;;;0.00;0.00;;;;;;;7.50;100.00;94595.97;1038690;28;20768;-73
2023/11/06 01:06:43;;;;;;;0.00;0.00;;;;;;;7.41;100.00;94583.75;1040403;28;20028;-74
2023/11/06 01:07:13;;;;;;;0.20;0.20;;;;;;;7.37;100.00;94585.34;1038471;28;20044;-72
2023/11/06 01:07:44;;;;;;;0.08;0.08;;;;;;;7.42;100.00;94591.31;1042642;28;20029;-72
2023/11/06 01:08:14;;;;;;;0.10;0.10;;;;;;;7.46;100.00;94600.16;1042564;28;20028;-74
2023/11/06 01:08:45;;;;;;;0.00;0.00;;;;;;;7.44;100.00;94591.03;1042774;28;20733;-74
2023/11/06 01:09:16;;;;;;;0.10;0.10;;;;;;;7.49;100.00;94593.63;1038678;28;20089;-73
2023/11/06 01:09:47;;;;;;;0.20;0.20;;;;;;;7.51;100.00;94596.72;1038522;28;20044;-72
2023/11/06 01:10:19;;;;;;;0.00;0.00;;;;;;;7.51;100.00;94599.34;1038439;28;20719;-74
2023/11/06 01:10:49;;;;;;;0.00;0.00;;;;;;;7.47;100.00;94600.94;1034583;28;20033;-73
2023/11/06 01:11:20;;;;;;;0.00;0.00;;;;;;;7.45;100.00;94596.00;1039025;28;20271;-73
2023/11/06 01:11:50;;;;;;;0.00;0.00;;;;;;;7.44;100.00;94597.03;1042595;28;20060;-74
2023/11/06 01:12:21;;;;;;;0.00;0.00;;;;;;;7.32;100.00;94583.56;1037796;28;20409;-72
2023/11/06 01:12:52;;;;;;;0.00;0.00;;;;;;;7.42;100.00;94595.78;1034506;28;20440;-74
2023/11/06 01:13:23;;;;;;;0.00;0.00;;;;;;;7.36;100.00;94604.66;1034333;28;20032;-73
2023/11/06 01:13:54;;;;;;;0.28;0.28;;;;;;;7.32;100.00;94602.59;1034795;28;20285;-72
2023/11/06 01:14:24;;;;;;;0.00;0.00;;;;;;;7.38;100.00;94602.56;1034559;28;20048;-72
2023/11/06 01:14:55;;;;;;;0.00;0.00;;;;;;;7.38;100.00;94607.78;1038881;28;20576;-74
2023/11/06 01:15:29;;;;;;;0.00;0.00;;;;;;;7.38;100.00;94599.94;1038322;28;20417;-73
2023/11/06 01:16:00;;;;;;;0.00;0.00;;;;;;;7.40;100.00;94597.84;1038423;28;20321;-75
2023/11/06 01:16:30;;;;;;;0.20;0.20;;;;;;;7.42;100.00;94598.38;1038323;28;20268;-72
2023/11/06 01:17:01;;;;;;;0.00;0.00;;;;;;;7.40;100.00;94603.84;1030239;28;20026;-75
2023/11/06 01:17:31;;;;;;;0.00;0.00;;;;;;;7.41;100.00;94612.47;1030575;28;20115;-73
2023/11/06 01:18:02;;;;;;;0.00;0.00;;;;;;;7.33;100.00;94604.16;1042732;28;20028;-73
2023/11/06 01:18:32;;;;;;;0.00;0.00;;;;;;;7.38;100.00;94613.78;1042666;28;20033;-75
2023/11/06 01:19:04;;;;;;;0.00;0.00;;;;;;;7.37;100.00;94608.84;1042496;28;20040;-74
2023/11/06 01:19:34;;;;;;;0.00;0.00;;;;;;;7.32;100.00;94601.81;1038558;28;20037;-75
2023/11/06 01:20:05;;;;;;;0.00;0.00;;;;;;;7.35;100.00;94605.72;1038159;28;20640;-75
2023/11/06 01:20:36;;;;;;;0.00;0.00;;;;;;;7.36;100.00;94607.28;1034177;28;20033;-75
2023/11/06 01:21:06;;;;;;;0.00;0.00;;;;;;;7.29;100.00;94595.31;1038574;28;20546;-75
2023/11/06 01:21:37;;;;;;;0.15;0.15;;;;;;;7.37;100.00;94614.06;1030575;28;20034;-75
2023/11/06 01:22:07;;;;;;;0.10;0.10;;;;;;;7.31;100.00;94603.66;1031264;28;20030;-74
2023/11/06 01:22:38;;;;;;;0.00;0.00;;;;;;;7.32;100.00;94602.59;1028885;28;20038;-73
2023/11/06 01:23:08;;;;;;;0.00;0.00;;;;;;;7.28;100.00;94609.41;1034291;28;20024;-72
2023/11/06 01:23:39;;;;;;;0.00;0.00;;;;;;;7.21;100.00;94597.69;1031865;28;20124;-72
2023/11/06 01:24:11;;;;;;;0.00;0.00;;;;;;;7.22;100.00;94592.22;1030552;28;20034;-74
2023/11/06 01:24:41;;;;;;;0.00;0.00;;;;;;;7.28;100.00;94598.97;1034431;28;20048;-73
2023/11/06 01:25:12;;;;;;;0.00;0.00;;;;;;;7.27;100.00;94613.03;1030483;28;20269;-72
2023/11/06 01:25:44;;;;;;;0.00;0.00;;;;;;;7.28;100.00;94612.03;1034932;28;20042;-72
2023/11/06 01:26:14;;;;;;;0.00;0.00;;;;;;;7.23;100.00;94604.22;1043221;28;20047;-74
2023/11/06 01:26:45;;;;;;;0.00;0.00;;;;;;;7.23;100.00;94611.25;1042629;28;20298;-73
2023/11/06 01:27:15;;;;;;;0.00;0.00;;;;;;;7.23;100.00;94609.44;1034648;28;20030;-75
2023/11/06 01:27:46;;;;;;;0.00;0.00;;;;;;;7.24;100.00;94597.16;1038630;28;20040;-73
2023/11/06 01:28:16;;;;;;;0.00;0.00;;;;;;;7.25;100.00;94611.78;1038502;28;20504;-75
2023/11/06 01:28:47;;;;;;;0.00;0.00;;;;;;;7.27;100.00;94609.66;1036374;28;20041;-73
2023/11/06 01:29:17;;;;;;;0.00;0.00;;;;;;;7.23;100.00;94606.81;1030721;28;20375;-73
2023/11/06 01:29:47;;;;;;;0.10;0.10;;;;;;;7.23;100.00;94612.03;1034280;28;20034;-75
2023/11/06 01:30:18;;;;;;;0.00;0.00;;;;;;;7.24;100.00;94610.19;1034427;28;20038;-74
2023/11/06 01:30:48;;;;;;;0.00;0.00;;;;;;;7.19;100.00;94605.03;1037901;28;20033;-73
2023/11/06 01:31:19;;;;;;;0.00;0.00;;;;;;;7.21;100.00;94616.75;1030411;28;20033;-72
2023/11/06 01:31:49;;;;;;;0.03;0.03;;;;;;;7.32;100.00;94618.25;1030343;28;20403;-75
2023/11/06 01:32:20;;;;;;;0.00;0.00;;;;;;;7.26;100.00;94613.34;1029219;28;20029;-73
2023/11/06 01:32:51;;;;;;;0.00;0.00;;;;;;;7.29;100.00;94612.78;1030141;28;20551;-75
2023/11/06 01:33:21;;;;;;;0.00;0.00;;;;;;;7.21;100.00;94611.53;1030710;28;20218;-73
2023/11/06 01:33:52;;;;;;;0.17;0.17;;;;;;;7.24;100.00;94620.63;1026201;28;20161;-75
2023/11/06 01:34:22;;;;;;;0.00;0.00;;;;;;;7.27;100.00;94615.66;1023170;28;20038;-73
2023/11/06 01:34:53;;;;;;;0.20;0.20;;;;;;;7.29;100.00;94621.41;1038485;28;20087;-72
2023/11/06 01:35:25;;;;;;;0.00;0.00;;;;;;;7.24;100.00;94613.63;1030321;28;20026;-74
2023/11/06 01:35:56;;;;;;;0.00;0.00;;;;;;;7.21;100.00;94616.75;1034532;28;20040;-73
2023/11/06 01:36:26;;;;;;;0.00;0.00;;;;;;;7.23;100.00;94624.31;1031291;28;20253;-74
2023/11/06 01:36:56;;;;;;;0.00;0.00;;;;;;;7.22;100.00;94618.31;1030875;28;20521;-75
2023/11/06 01:37:27;;;;;;;0.00;0.00;;;;;;;7.25;100.00;94611.78;1034447;28;20038;-75
2023/11/06 01:37:58;;;;;;;0.00;0.00;;;;;;;7.30;100.00;94633.38;1034446;28;20026;-73
2023/11/06 01:38:29;;;;;;;0.00;0.00;;;;;;;7.26;100.00;94623.78;1038300;28;20030;-73
2023/11/06 01:38:59;;;;;;;0.00;0.00;;;;;;;7.27;100.00;94635.75;1034618;28;20268;-74
2023/11/06 01:39:30;;;;;;;0.00;0.00;;;;;;;7.23;100.00;94614.63;1034281;28;20034;-75
2023/11/06 01:40:01;;;;;;;0.00;0.00;;;;;;;7.25;100.00;94628.22;1030315;28;20034;-74
2023/11/06 01:40:31;;;;;;;0.00;0.00;;;;;;;7.30;100.00;94632.63;1029682;28;20793;-74
2023/11/06 01:41:05;;;;;;;0.00;0.00;;;;;;;7.35;100.00;94627.38;1034464;28;20029;-72
2023/11/06 01:41:37;;;;;;;0.00;0.00;;;;;;;7.32;100.00;94630.53;1027944;28;20848;-73
2023/11/06 01:42:07;;;;;;;0.00;0.00;;;;;;;7.31;100.00;94627.13;1030924;28;20292;-72
2023/11/06 01:42:38;;;;;;;0.00;0.00;;;;;;;7.23;100.00;94616.47;1029926;28;20281;-74
2023/11/06 01:43:08;;;;;;;0.20;0.20;;;;;;;7.27;100.00;94631.31;1026328;28;20094;-74
2023/11/06 01:43:39;;;;;;;0.57;0.30;;;;;;;7.15;100.00;94623.03;1026481;28;20047;-73
2023/11/06 01:44:09;;;;;;;0.00;0.00;;;;;;;7.21;100.00;94627.19;1026300;28;20111;-72
2023/11/06 01:44:40;;;;;;;0.00;0.00;;;;;;;7.20;100.00;94636.03;1025787;28;20041;-74
2023/11/06 01:45:10;;;;;;;0.00;0.00;;;;;;;7.20;100.00;94630.81;1034282;28;20040;-74
2023/11/06 01:45:40;;;;;;;0.20;0.20;;;;;;;7.20;100.00;94630.81;1027175;28;20038;-74
2023/11/06 01:46:11;;;;;;;0.00;0.00;;;;;;;7.24;100.00;94631.88;1030674;28;20034;-74
2023/11/06 01:46:41;;;;;;;0.80;0.63;;;;;;;7.23;100.00;94635.50;1030603;28;20101;-72
2023/11/06 01:47:12;;;;;;;0.00;0.00;;;;;;;7.20;100.00;94633.44;1026641;28;20027;-73
2023/11/06 01:47:42;;;;;;;0.10;0.10;;;;;;;7.07;100.00;94623.59;1033376;28;20065;-73
2023/11/06 01:48:13;;;;;;;0.00;0.00;;;;;;;7.24;100.00;94634.47;1034659;28;20065;-74
2023/11/06 01:48:43;;;;;;;0.00;0.00;;;;;;;7.27;100.00;94644.34;1033682;28;20541;-72
2023/11/06 01:49:17;;;;;;;0.00;0.00;;;;;;;7.25;100.00;94643.09;1030385;28;20058;-73
2023/11/06 01:49:47;;;;;;;0.00;0.00;;;;;;;7.28;100.00;94648.53;1030307;28;20049;-72
2023/11/06 01:50:18;;;;;;;0.00;0.00;;;;;;;7.15;100.00;94625.66;1034188;28;20335;-72
2023/11/06 01:50:48;;;;;;;0.00;0.00;;;;;;;7.18;100.00;94637.38;1032494;28;20073;-73
2023/11/06 01:51:19;;;;;;;0.00;0.00;;;;;;;7.22;100.00;94649.63;1030441;28;20094;-76
2023/11/06 01:51:50;;;;;;;0.00;0.00;;;;;;;7.23;100.00;94650.38;1026365;28;20030;-73
2023/11/06 01:52:21;;;;;;;0.00;0.00;;;;;;;7.25;100.00;94654.31;1030643;28;20501;-74
2023/11/06 01:52:51;;;;;;;0.03;0.03;;;;;;;7.26;100.00;94649.84;1038229;28;20029;-75
2023/11/06 01:53:22;;;;;;;0.00;0.00;;;;;;;7.22;100.00;94654.84;1041850;28;20666;-74
2023/11/06 01:53:54;;;;;;;0.28;0.28;;;;;;;7.11;100.00;94637.69;1033356;28;20023;-74
2023/11/06 01:54:24;;;;;;;0.00;0.00;;;;;;;7.03;100.00;94630.38;1028267;28;20962;-74
2023/11/06 01:54:54;;;;;;;0.00;0.00;;;;;;;7.17;100.00;94652.22;1033744;28;20276;-73
2023/11/06 01:55:27;;;;;;;0.00;0.00;;;;;;;7.15;100.00;94649.13;1029566;28;20045;-75
2023/11/06 01:55:58;;;;;;;0.80;0.30;;;;;;;7.09;100.00;94650.19;1033534;28;20022;-73
2023/11/06 01:56:28;;;;;;;3.20;2.08;;;;;;;7.05;100.00;94649.16;1033794;28;20366;-73
2023/11/06 01:56:59;;;;;;;0.00;0.00;;;;;;;7.10;100.00;94651.75;1033771;28;20077;-76
2023/11/06 01:57:29;;;;;;;0.00;0.00;;;;;;;7.11;100.00;94660.34;1029496;28;20137;-75
2023/11/06 01:58:00;;;;;;;0.00;0.00;;;;;;;7.09;100.00;94650.97;1029132;28;20049;-74
2023/11/06 01:58:30;;;;;;;0.00;0.00;;;;;;;7.07;100.00;94654.88;1029661;28;20030;-74
2023/11/06 01:59:01;;;;;;;0.00;0.00;;;;;;;7.02;100.00;94647.88;1033752;28;20351;-74
2023/11/06 01:59:32;;;;;;;0.00;0.00;;;;;;;6.97;100.00;94649.69;1030304;28;20387;-73
2023/11/06 02:00:04;;;;;;;0.00;0.00;;;;;;;7.00;100.00;94652.56;1024271;28;20510;-75
2023/11/06 02:00:35;;;;;;;0.00;0.00;;;;;;;7.03;100.00;94661.69;1026727;28;20036;-74
2023/11/06 02:01:06;;;;;;;0.00;0.00;;;;;;;6.90;100.00;94646.59;1027173;28;20764;-74
2023/11/06 02:01:38;;;;;;;0.00;0.00;;;;;;;7.02;100.00;94658.31;1027045;28;20046;-74
2023/11/06 02:02:09;;;;;;;0.00;0.00;;;;;;;7.04;100.00;94660.63;1030140;28;20026;-73
2023/11/06 02:02:40;;;;;;;0.00;0.00;;;;;;;6.98;100.00;94659.09;1029064;28;20856;-73
2023/11/06 02:03:13;;;;;;;0.00;0.00;;;;;;;6.99;100.00;94663.28;1034207;28;20030;-74
2023/11/06 02:03:44;;;;;;;0.55;0.43;;;;;;;6.95;100.00;94659.63;1030200;28;20277;-74
2023/11/06 02:04:14;;;;;;;0.00;0.00;;;;;;;6.93;100.00;94672.16;1030315;28;20722;-73
2023/11/06 02:04:48;;;;;;;0.00;0.00;;;;;;;6.95;100.00;94665.63;1035283;28;20044;-74
2023/11/06 02:05:19;;;;;;;0.00;0.00;;;;;;;6.92;100.00;94671.38;1034864;28;20029;-72
2023/11/06 02:05:49;;;;;;;0.00;0.00;;;;;;;6.88;100.00;94659.16;1038476;28;20272;-73
2023/11/06 02:06:20;;;;;;;0.00;0.00;;;;;;;6.86;100.00;94659.38;1030989;28;20154;-73
2023/11/06 02:06:50;;;;;;;0.00;0.00;;;;;;;6.93;100.00;94672.94;1031371;28;20027;-75
2023/11/06 02:07:21;;;;;;;0.00;0.00;;;;;;;6.92;100.00;94668.00;1038553;28;20029;-75
2023/11/06 02:07:51;;;;;;;0.00;0.00;;;;;;;6.80;100.00;94653.41;1038200;28;20080;-75
2023/11/06 02:08:22;;;;;;;0.10;0.10;;;;;;;6.81;100.00;94659.41;1030311;28;20654;-73
2023/11/06 02:08:52;;;;;;;0.00;0.00;;;;;;;6.84;100.00;94667.50;1034637;28;20462;-74
2023/11/06 02:09:25;;;;;;;0.20;0.20;;;;;;;6.82;100.00;94672.19;1030453;28;20030;-74
2023/11/06 02:09:58;;;;;;;0.00;0.00;;;;;;;6.89;100.00;94674.50;1022679;28;20103;-73
2023/11/06 02:10:28;;;;;;;0.00;0.00;;;;;;;6.88;100.00;94680.00;1025586;28;20363;-74
2023/11/06 02:11:02;;;;;;;0.00;0.00;;;;;;;6.89;100.00;94681.56;1030344;28;20269;-74
2023/11/06 02:11:32;;;;;;;0.00;0.00;;;;;;;6.85;100.00;94674.25;1035329;28;20496;-74
2023/11/06 02:12:03;;;;;;;0.00;0.00;;;;;;;6.78;100.00;94675.59;1029404;28;20261;-69
2023/11/06 02:12:34;;;;;;;0.20;0.20;;;;;;;6.74;100.00;94670.13;1025724;28;20608;-73
2023/11/06 02:13:04;;;;;;;0.00;0.00;;;;;;;6.80;100.00;94676.88;1022271;29;20042;-73
2023/11/06 02:13:35;;;;;;;0.00;0.00;;;;;;;6.81;100.00;94681.06;1031584;28;20433;-73
2023/11/06 02:14:05;;;;;;;0.10;0.10;;;;;;;6.76;100.00;94673.22;1034222;28;20029;-72
2023/11/06 02:14:49;;;;;;;0.00;0.00;;;;;;;6.81;100.00;94681.06;1030299;28;20084;-74
2023/11/06 02:15:20;;;;;;;0.00;0.00;;;;;;;6.83;100.00;94678.16;1034858;28;20045;-72
2023/11/06 02:15:51;;;;;;;0.00;0.00;;;;;;;6.82;100.00;94682.59;1036295;28;20281;-73
2023/11/06 02:16:21;;;;;;;0.20;0.20;;;;;;;6.84;100.00;94671.91;1036313;28;20640;-74
2023/11/06 02:16:52;;;;;;;0.00;0.00;;;;;;;6.88;100.00;94674.78;1036445;28;20516;-74
2023/11/06 02:17:22;;;;;;;0.00;0.00;;;;;;;6.83;100.00;94676.34;1030331;28;20042;-74
2023/11/06 02:17:55;;;;;;;0.00;0.00;;;;;;;6.86;100.00;94680.25;1030343;28;20071;-74
2023/11/06 02:18:25;;;;;;;0.00;0.00;;;;;;;6.85;100.00;94676.88;1030890;28;20034;-73
2023/11/06 02:18:56;;;;;;;0.00;0.00;;;;;;;6.78;100.00;94665.94;1034565;28;20265;-73
2023/11/06 02:19:27;;;;;;;0.28;0.28;;;;;;;6.84;100.00;94667.50;1034799;28;20034;-72
2023/11/06 02:19:59;;;;;;;1.27;1.08;;;;;;;6.87;100.00;94686.25;1034367;28;20098;-73
2023/11/06 02:20:29;;;;;;;0.00;0.00;;;;;;;6.82;100.00;94685.22;1034297;28;20109;-72
2023/11/06 02:21:00;;;;;;;0.00;0.00;;;;;;;6.84;100.00;94688.34;1042851;28;20324;-72
2023/11/06 02:21:30;;;;;;;0.00;0.00;;;;;;;6.80;100.00;94691.72;1042705;28;20019;-75
2023/11/06 02:22:01;;;;;;;0.00;0.00;;;;;;;6.71;100.00;94665.44;1042455;28;20096;-73
2023/11/06 02:22:32;;;;;;;0.00;0.00;;;;;;;6.76;100.00;94680.28;1037789;28;20025;-73
2023/11/06 02:23:08;;;;;;;0.00;0.00;;;;;;;6.68;100.00;94670.41;1034404;28;20509;-74
2023/11/06 02:23:38;;;;;;;0.00;0.00;;;;;;;6.73;100.00;94678.19;1033504;28;20684;-73
2023/11/06 02:24:09;;;;;;;0.00;0.00;;;;;;;6.77;100.00;94681.81;1038090;28;20263;-75
2023/11/06 02:24:39;;;;;;;0.00;0.00;;;;;;;6.83;100.00;94689.38;1034802;28;20545;-74
2023/11/06 02:25:10;;;;;;;0.00;0.00;;;;;;;6.79;100.00;94684.97;1034409;28;20083;-72